GATOR7 -KNIP
Flight info
| Callsign | GATOR7 |
|---|---|
| Flight time | N/A |
| Altitude | 3000 |
| Route | |
| Aircraft | F35/M-DOV/C |
Departure
| Time | N/A |
|---|---|
| Airport | - |
Arrival
| Time | 2026-04-24 00:31 |
|---|---|
| Airport | Jacksonville Naval Air Station (Towers Field) (KNIP) |
| Time | Latitude | Longitude | Altitude | Speed | Heading |
|---|---|---|---|---|---|
| 2026-04-24 00:22 | 30.18387 | -81.56042 | 9145 ft | 314 kts | 225° |
| 2026-04-24 00:22 | 30.16846 | -81.57783 | 9164 ft | 311 kts | 225° |
| 2026-04-24 00:22 | 30.15457 | -81.59761 | 9140 ft | 334 kts | 244° |
| 2026-04-24 00:22 | 30.14673 | -81.62509 | 8523 ft | 387 kts | 255° |
| 2026-04-24 00:23 | 30.13956 | -81.65563 | 7919 ft | 393 kts | 254° |
| 2026-04-24 00:23 | 30.13260 | -81.68481 | 6651 ft | 323 kts | 255° |
| 2026-04-24 00:23 | 30.12827 | -81.70539 | 5467 ft | 249 kts | 255° |
| 2026-04-24 00:23 | 30.13243 | -81.72290 | 4569 ft | 234 kts | 328° |
| 2026-04-24 00:24 | 30.14837 | -81.72700 | 3851 ft | 244 kts | 350° |
| 2026-04-24 00:24 | 30.16527 | -81.72882 | 3467 ft | 245 kts | 353° |
| 2026-04-24 00:24 | 30.18260 | -81.72875 | 3382 ft | 275 kts | 11° |
| 2026-04-24 00:24 | 30.19985 | -81.71671 | 3374 ft | 314 kts | 52° |
| 2026-04-24 00:25 | 30.21085 | -81.69284 | 3224 ft | 364 kts | 65° |
| 2026-04-24 00:25 | 30.22434 | -81.67318 | 2772 ft | 256 kts | 43° |
| 2026-04-24 00:25 | 30.23603 | -81.65634 | 2817 ft | 290 kts | 51° |
| 2026-04-24 00:25 | 30.24945 | -81.63840 | 2841 ft | 287 kts | 51° |
| 2026-04-24 00:26 | 30.26269 | -81.62263 | 2822 ft | 265 kts | 26° |
| 2026-04-24 00:26 | 30.28243 | -81.62219 | 2826 ft | 309 kts | 351° |
| 2026-04-24 00:26 | 30.29808 | -81.63248 | 2797 ft | 237 kts | 290° |
| 2026-04-24 00:26 | 30.30143 | -81.65508 | 2789 ft | 334 kts | 269° |
| 2026-04-24 00:27 | 30.30152 | -81.67406 | 2810 ft | 376 kts | 265° |
| 2026-04-24 00:27 | 30.30071 | -81.70288 | 2812 ft | 341 kts | 264° |
| 2026-04-24 00:27 | 30.29928 | -81.73036 | 2818 ft | 346 kts | 264° |
| 2026-04-24 00:27 | 30.29854 | -81.75554 | 2807 ft | 234 kts | 265° |
| 2026-04-24 00:28 | 30.29512 | -81.77033 | 2761 ft | 166 kts | 219° |
| 2026-04-24 00:28 | 30.28200 | -81.77251 | 2744 ft | 237 kts | 162° |
| 2026-04-24 00:28 | 30.27009 | -81.75918 | 2651 ft | 220 kts | 116° |
| 2026-04-24 00:28 | 30.26589 | -81.74509 | 2580 ft | 166 kts | 125° |
| 2026-04-24 00:29 | 30.26051 | -81.73327 | 2487 ft | 182 kts | 112° |
| 2026-04-24 00:29 | 30.25933 | -81.71811 | 2401 ft | 203 kts | 95° |
| 2026-04-24 00:29 | 30.25673 | -81.70117 | 1833 ft | 258 kts | 126° |
| 2026-04-24 00:29 | 30.24426 | -81.68195 | 1293 ft | 306 kts | 130° |
| 2026-04-24 00:30 | 30.23684 | -81.66056 | 1247 ft | 273 kts | 66° |
| 2026-04-24 00:30 | 30.24938 | -81.65459 | 1299 ft | 157 kts | 324° |
| 2026-04-24 00:30 | 30.25838 | -81.66271 | 1272 ft | 190 kts | 311° |
| 2026-04-24 00:30 | 30.26705 | -81.67324 | 1402 ft | 163 kts | 294° |
| 2026-04-24 00:31 | 30.26577 | -81.68469 | 1037 ft | 148 kts | 221° |
| 2026-04-24 00:31 | 30.25583 | -81.68783 | 524 ft | 160 kts | 171° |
| 2026-04-24 00:31 | 30.24685 | -81.68289 | 179 ft | 124 kts | 150° |
| 2026-04-24 00:31 | 30.24187 | -81.67796 | 19 ft | 0 kts | 137° |